Assen, Netherlands
Current Conditions -  °F | °C
As of 11:25 AM on Monday 22 Dec 2014 (Local Time) from EHGG Reporting Station
Overcast Overcast  
Wind Chill: 54°   Ceiling: 1700
Heat Index: 54°   Visibility: 6mi
Dew Point: 50°   Wind: 28mph
Humidity: 88%   Direction: 250°WSW
Pressure: 29.83"   Gusts: 41mph
Location:  53°N, 6.56°E
Report Text: EHGG 221025Z AUTO 25024G36KT 220V300 9999 FEW014 BKN017 OVC02212/10 Q1010 TEMPO 7000 -DZRA BKN008
Loading
Personal Weather Stations






























Interactive Weather Map New forecast layout! Learn more

10-Day Weather Forecast

Advertisements
Track Severe Weather on mobile